createdAt,value
2022-10-02T00:02:21.952Z,11.60
2022-10-02T00:05:16.437Z,11.60
2022-10-02T00:08:01.491Z,11.60
2022-10-02T00:10:35.214Z,11.60
2022-10-02T00:13:25.993Z,11.60
2022-10-02T00:15:56.422Z,11.60
2022-10-02T00:18:33.214Z,11.60
2022-10-02T00:21:32.095Z,11.60
2022-10-02T00:24:06.599Z,11.60
2022-10-02T00:27:00.720Z,11.60
2022-10-02T00:29:48.439Z,11.60
2022-10-02T00:33:02.023Z,11.60
2022-10-02T00:35:47.917Z,11.60
2022-10-02T00:38:46.520Z,11.60
2022-10-02T00:41:55.905Z,11.60
2022-10-02T00:44:47.770Z,11.60
2022-10-02T00:47:30.229Z,11.60
2022-10-02T00:50:18.376Z,11.60
2022-10-02T00:52:50.254Z,11.50
2022-10-02T00:56:12.814Z,11.50
2022-10-02T00:59:02.543Z,11.50
2022-10-02T01:01:43.399Z,11.50
2022-10-02T01:04:20.851Z,11.50
2022-10-02T01:06:51.311Z,11.50
2022-10-02T01:09:19.586Z,11.50
2022-10-02T01:11:55.796Z,11.50
2022-10-02T01:14:39.687Z,11.50
2022-10-02T01:17:31.559Z,11.50
2022-10-02T01:20:12.724Z,11.50
2022-10-02T01:23:02.838Z,11.60
2022-10-02T01:25:34.289Z,11.60
2022-10-02T01:28:02.740Z,11.60
2022-10-02T01:30:40.981Z,11.60
2022-10-02T01:33:13.643Z,11.60
2022-10-02T01:35:44.682Z,11.60
2022-10-02T01:38:18.619Z,11.60
2022-10-02T01:40:52.815Z,11.70
2022-10-02T01:43:37.236Z,11.70
2022-10-02T01:46:23.333Z,11.60
2022-10-02T01:49:19.958Z,11.60
2022-10-02T01:52:21.364Z,11.60
2022-10-02T01:55:14.661Z,11.60
2022-10-02T01:57:41.937Z,11.60
2022-10-02T02:00:14.080Z,11.50
2022-10-02T02:02:46.427Z,11.60
2022-10-02T02:05:24.635Z,11.50
2022-10-02T02:08:09.081Z,11.60
2022-10-02T02:11:15.247Z,11.60
2022-10-02T02:13:54.117Z,11.50
2022-10-02T02:17:06.656Z,11.50
2022-10-02T02:20:01.418Z,11.50
2022-10-02T02:22:38.872Z,11.50
2022-10-02T02:25:33.990Z,11.50
2022-10-02T02:28:05.181Z,11.40
2022-10-02T02:30:33.876Z,11.50
2022-10-02T02:33:32.943Z,11.50
2022-10-02T02:36:12.612Z,11.40
2022-10-02T02:38:46.006Z,11.50
2022-10-02T02:41:22.392Z,11.50
2022-10-02T02:43:59.561Z,11.40
2022-10-02T02:46:31.492Z,11.50
2022-10-02T02:49:07.618Z,11.50
2022-10-02T02:51:42.981Z,11.50
2022-10-02T02:54:16.145Z,11.50
2022-10-02T02:56:48.717Z,11.40
2022-10-02T02:59:19.184Z,11.50
2022-10-02T03:01:46.884Z,11.40
2022-10-02T03:04:14.944Z,11.50
2022-10-02T03:06:49.336Z,11.40
2022-10-02T03:09:20.189Z,11.40
2022-10-02T03:12:09.189Z,11.40
2022-10-02T03:14:54.622Z,11.30
2022-10-02T03:17:44.734Z,11.40
2022-10-02T03:20:34.688Z,11.40
2022-10-02T03:23:13.493Z,11.40
2022-10-02T03:25:50.497Z,11.40
2022-10-02T03:28:54.894Z,11.40
2022-10-02T03:31:31.849Z,11.40
2022-10-02T03:34:02.004Z,11.40
2022-10-02T03:36:30.861Z,11.40
2022-10-02T03:39:23.556Z,11.40
2022-10-02T03:41:51.224Z,11.40
2022-10-02T03:44:23.169Z,11.40
2022-10-02T03:46:55.202Z,11.40
2022-10-02T03:49:22.552Z,11.40
2022-10-02T03:51:55.078Z,11.40
2022-10-02T03:54:22.888Z,11.40
2022-10-02T03:56:53.395Z,11.40
2022-10-02T03:59:49.214Z,11.40
2022-10-02T04:02:43.882Z,11.40
2022-10-02T04:05:31.289Z,11.40
2022-10-02T04:08:07.314Z,11.50
2022-10-02T04:10:56.931Z,11.50
2022-10-02T04:13:53.353Z,11.50
2022-10-02T04:16:24.262Z,11.50
2022-10-02T04:19:04.186Z,11.40
2022-10-02T04:21:37.207Z,11.40
2022-10-02T04:24:15.479Z,11.40
2022-10-02T04:26:56.555Z,11.40
2022-10-02T04:29:28.589Z,11.40
2022-10-02T04:32:16.791Z,11.40
2022-10-02T04:34:49.139Z,11.40
2022-10-02T04:37:43.251Z,11.40
2022-10-02T04:40:51.068Z,11.40
2022-10-02T04:43:38.328Z,11.40
2022-10-02T04:46:25.982Z,11.40
2022-10-02T04:49:07.145Z,11.40
2022-10-02T04:51:40.449Z,11.40
2022-10-02T04:54:10.264Z,11.40
2022-10-02T04:57:05.481Z,11.50
2022-10-02T04:59:41.487Z,11.50
2022-10-02T05:02:43.901Z,11.50
2022-10-02T05:05:25.400Z,11.50
2022-10-02T05:08:20.991Z,11.40
2022-10-02T05:11:23.719Z,11.50
2022-10-02T05:13:52.293Z,11.40
2022-10-02T05:16:54.794Z,11.40
2022-10-02T05:19:57.485Z,11.40
2022-10-02T05:22:36.071Z,11.40
2022-10-02T05:25:36.334Z,11.40
2022-10-02T05:28:40.212Z,11.40
2022-10-02T05:31:38.481Z,11.40
2022-10-02T05:34:53.374Z,11.40
2022-10-02T05:37:40.740Z,11.40
2022-10-02T05:40:31.547Z,11.50
2022-10-02T05:43:29.777Z,11.50
2022-10-02T05:46:05.626Z,11.50
2022-10-02T05:48:49.068Z,11.40
2022-10-02T05:52:02.696Z,11.40
2022-10-02T05:54:47.201Z,11.50
2022-10-02T05:57:32.103Z,11.50
2022-10-02T06:00:20.807Z,11.50
2022-10-02T06:02:48.102Z,11.60
2022-10-02T06:05:17.840Z,11.60
2022-10-02T06:07:50.731Z,11.60
2022-10-02T06:10:22.111Z,11.60
2022-10-02T06:13:17.831Z,11.60
2022-10-02T06:16:10.129Z,11.60
2022-10-02T06:18:46.764Z,11.60
2022-10-02T06:21:33.033Z,11.60
2022-10-02T06:24:06.013Z,11.60
2022-10-02T06:27:00.768Z,11.70
2022-10-02T06:29:42.400Z,11.70
2022-10-02T06:32:25.198Z,11.80
2022-10-02T06:34:54.590Z,11.80
2022-10-02T06:38:03.528Z,11.80
2022-10-02T06:40:54.230Z,11.90
2022-10-02T06:43:42.630Z,11.90
2022-10-02T06:46:37.110Z,11.90
2022-10-02T06:49:31.803Z,11.90
2022-10-02T06:52:04.364Z,11.90
2022-10-02T06:54:46.963Z,11.90
2022-10-02T06:57:43.326Z,11.90
2022-10-02T07:00:18.190Z,11.90
2022-10-02T07:02:57.431Z,11.90
2022-10-02T07:05:53.389Z,11.90
2022-10-02T07:08:45.168Z,12.00
2022-10-02T07:11:39.630Z,12.00
2022-10-02T07:14:28.496Z,12.00
2022-10-02T07:17:10.519Z,12.00
2022-10-02T07:19:43.291Z,12.00
2022-10-02T07:22:44.095Z,12.10
2022-10-02T07:25:18.163Z,12.10
2022-10-02T07:28:07.215Z,12.10
2022-10-02T07:30:58.283Z,12.10
2022-10-02T07:33:44.716Z,12.10
2022-10-02T07:36:25.829Z,12.10
2022-10-02T07:39:21.433Z,12.10
2022-10-02T07:42:12.262Z,12.20
2022-10-02T07:44:39.609Z,12.20
2022-10-02T07:47:36.835Z,12.30
2022-10-02T07:50:40.879Z,12.30
2022-10-02T07:53:43.061Z,12.30
2022-10-02T07:56:20.101Z,12.40
2022-10-02T07:59:03.781Z,12.50
2022-10-02T08:01:37.357Z,12.70
2022-10-02T08:04:11.385Z,12.70
2022-10-02T08:06:41.601Z,12.80
2022-10-02T08:09:19.020Z,12.80
2022-10-02T08:11:54.911Z,12.80
2022-10-02T08:14:44.315Z,12.70
2022-10-02T08:17:43.086Z,12.70
2022-10-02T08:20:25.386Z,12.70
2022-10-02T08:23:14.611Z,12.70
2022-10-02T08:26:11.687Z,12.70
2022-10-02T08:28:49.525Z,12.80
2022-10-02T08:31:23.439Z,12.70
2022-10-02T08:33:52.020Z,12.60
2022-10-02T08:36:34.283Z,12.70
2022-10-02T08:39:28.286Z,12.70
2022-10-02T08:42:14.052Z,12.80
2022-10-02T08:45:19.493Z,12.90
2022-10-02T08:47:55.073Z,13.00
2022-10-02T08:50:46.838Z,13.00
2022-10-02T08:53:49.102Z,13.00
2022-10-02T08:56:41.143Z,13.10
2022-10-02T08:59:25.967Z,13.20
2022-10-02T09:02:34.810Z,13.20
2022-10-02T09:05:04.221Z,13.40
2022-10-02T09:07:47.258Z,13.50
2022-10-02T09:10:32.897Z,13.50
2022-10-02T09:13:18.614Z,13.50
2022-10-02T09:15:50.537Z,13.50
2022-10-02T09:18:50.453Z,13.40
2022-10-02T09:21:22.264Z,13.30
2022-10-02T09:24:20.326Z,13.30
2022-10-02T09:27:15.713Z,13.30
2022-10-02T09:30:19.450Z,13.50
2022-10-02T09:33:27.277Z,13.70
2022-10-02T09:36:26.709Z,13.80
2022-10-02T09:39:25.822Z,13.90
2022-10-02T09:42:34.269Z,14.00
2022-10-02T09:45:36.748Z,14.00
2022-10-02T09:48:45.342Z,13.90
2022-10-02T09:51:44.314Z,13.80
2022-10-02T09:54:44.204Z,13.70
2022-10-02T09:57:50.153Z,13.60
2022-10-02T10:00:49.552Z,13.50
2022-10-02T10:03:19.238Z,13.60
2022-10-02T10:06:24.317Z,13.60
2022-10-02T10:08:53.465Z,13.80
2022-10-02T10:11:31.048Z,13.90
2022-10-02T10:14:17.510Z,13.90
2022-10-02T10:17:02.160Z,13.90
2022-10-02T10:20:04.067Z,13.90
2022-10-02T10:23:08.696Z,13.80
2022-10-02T10:25:50.252Z,13.90
2022-10-02T10:28:50.257Z,14.00
2022-10-02T10:31:36.875Z,14.00
2022-10-02T10:34:25.261Z,14.00
2022-10-02T10:37:20.515Z,14.00
2022-10-02T10:40:06.937Z,14.00
2022-10-02T10:43:07.414Z,14.10
2022-10-02T10:46:07.764Z,14.00
2022-10-02T10:49:09.681Z,14.10
2022-10-02T10:51:48.399Z,14.00
2022-10-02T10:54:40.570Z,14.00
2022-10-02T10:57:43.492Z,14.00
2022-10-02T11:00:23.406Z,13.80
2022-10-02T11:03:17.447Z,13.70
2022-10-02T11:06:03.684Z,13.70
2022-10-02T11:08:37.108Z,13.80
2022-10-02T11:11:13.288Z,13.80
2022-10-02T11:14:20.482Z,13.90
2022-10-02T11:17:25.204Z,13.80
2022-10-02T11:20:38.022Z,13.80
2022-10-02T11:23:32.377Z,13.80
2022-10-02T11:26:21.399Z,13.80
2022-10-02T11:29:12.571Z,13.80
2022-10-02T11:31:54.047Z,13.80
2022-10-02T11:34:33.562Z,13.80
2022-10-02T11:37:31.842Z,13.80
2022-10-02T11:40:22.983Z,13.70
2022-10-02T11:42:59.175Z,13.60
2022-10-02T11:45:59.593Z,13.60
2022-10-02T11:48:55.935Z,13.60
2022-10-02T11:51:56.781Z,13.80
2022-10-02T11:54:48.501Z,14.00
2022-10-02T11:57:45.755Z,14.00
2022-10-02T12:00:45.124Z,14.00
2022-10-02T12:03:26.339Z,14.10
2022-10-02T12:06:19.463Z,14.10
2022-10-02T12:09:10.218Z,14.30
2022-10-02T12:12:04.048Z,14.30
2022-10-02T12:14:54.863Z,14.30
2022-10-02T12:17:38.807Z,14.20
2022-10-02T12:20:26.384Z,14.30
2022-10-02T12:23:42.469Z,14.20
2022-10-02T12:26:58.835Z,14.20
2022-10-02T12:29:53.435Z,14.30
2022-10-02T12:32:46.797Z,14.50
2022-10-02T12:35:33.311Z,14.80
2022-10-02T12:38:18.918Z,14.80
2022-10-02T12:40:57.866Z,14.90
2022-10-02T12:43:53.132Z,14.80
2022-10-02T12:46:46.218Z,14.90
2022-10-02T12:49:22.520Z,15.00
2022-10-02T12:52:29.880Z,15.10
2022-10-02T12:55:44.389Z,15.10
2022-10-02T12:58:25.731Z,15.10
2022-10-02T13:01:09.908Z,15.10
2022-10-02T13:03:56.019Z,15.10
2022-10-02T13:06:46.605Z,15.10
2022-10-02T13:09:56.273Z,15.00
2022-10-02T13:12:31.038Z,15.00
2022-10-02T13:15:04.550Z,15.00
2022-10-02T13:17:34.092Z,15.10
2022-10-02T13:20:16.020Z,15.30
2022-10-02T13:23:09.514Z,15.30
2022-10-02T13:25:57.235Z,15.40
2022-10-02T13:28:26.973Z,15.50
2022-10-02T13:31:23.649Z,15.50
2022-10-02T13:34:09.492Z,15.50
2022-10-02T13:37:06.956Z,15.40
2022-10-02T13:40:01.468Z,15.30
2022-10-02T13:42:53.087Z,15.40
2022-10-02T13:45:40.509Z,15.40
2022-10-02T13:48:54.945Z,15.40
2022-10-02T13:51:41.052Z,15.40
2022-10-02T13:54:32.348Z,15.20
2022-10-02T13:57:21.675Z,15.20
2022-10-02T14:00:04.175Z,15.20
2022-10-02T14:02:43.241Z,15.20
2022-10-02T14:05:11.310Z,15.10
2022-10-02T14:08:14.548Z,15.00
2022-10-02T14:11:00.109Z,14.90
2022-10-02T14:14:03.363Z,14.90
2022-10-02T14:16:46.401Z,14.80
2022-10-02T14:19:57.198Z,14.80
2022-10-02T14:22:27.530Z,14.70
2022-10-02T14:25:17.976Z,14.70
2022-10-02T14:27:50.886Z,14.80
2022-10-02T14:30:43.004Z,14.90
2022-10-02T14:33:37.499Z,15.00
2022-10-02T14:36:42.511Z,15.10
2022-10-02T14:39:17.802Z,15.30
2022-10-02T14:41:55.298Z,15.30
2022-10-02T14:45:04.368Z,15.50
2022-10-02T14:47:53.417Z,15.50
2022-10-02T14:50:48.616Z,15.40
2022-10-02T14:53:41.248Z,15.30
2022-10-02T14:56:35.215Z,15.20
2022-10-02T14:59:16.186Z,15.10
2022-10-02T15:01:55.198Z,15.10
2022-10-02T15:04:31.504Z,15.00
2022-10-02T15:07:17.171Z,14.90
2022-10-02T15:10:23.894Z,14.90
2022-10-02T15:13:00.982Z,14.80
2022-10-02T15:16:22.094Z,14.80
2022-10-02T15:18:58.930Z,14.80
2022-10-02T15:22:06.459Z,14.70
2022-10-02T15:24:57.672Z,14.70
2022-10-02T15:27:33.709Z,14.50
2022-10-02T15:30:28.484Z,14.40
2022-10-02T15:33:10.859Z,14.40
2022-10-02T15:36:01.343Z,14.40
2022-10-02T15:38:59.860Z,14.30
2022-10-02T15:42:18.333Z,14.30
2022-10-02T15:45:07.361Z,14.20
2022-10-02T15:48:01.467Z,14.20
2022-10-02T15:50:57.510Z,14.10
2022-10-02T15:54:14.866Z,14.00
2022-10-02T15:57:12.106Z,14.00
2022-10-02T16:00:18.700Z,13.90
2022-10-02T16:03:02.438Z,13.80
2022-10-02T16:06:01.320Z,13.80
2022-10-02T16:08:55.899Z,13.70
2022-10-02T16:11:37.275Z,13.60
2022-10-02T16:14:19.358Z,13.60
2022-10-02T16:17:04.375Z,13.50
2022-10-02T16:20:24.714Z,13.40
2022-10-02T16:23:13.988Z,13.40
2022-10-02T16:26:08.150Z,13.30
2022-10-02T16:28:50.631Z,13.30
2022-10-02T16:31:36.424Z,13.30
2022-10-02T16:34:19.192Z,13.20
2022-10-02T16:37:08.641Z,13.20
2022-10-02T16:39:55.933Z,13.10
2022-10-02T16:42:37.777Z,13.10
2022-10-02T16:45:17.462Z,13.10
2022-10-02T16:47:53.721Z,13.00
2022-10-02T16:50:48.829Z,13.00
2022-10-02T16:53:36.214Z,12.90
2022-10-02T16:56:22.244Z,12.90
2022-10-02T16:59:06.346Z,12.90
2022-10-02T17:02:05.453Z,12.80
2022-10-02T17:04:57.600Z,12.80
2022-10-02T17:07:54.599Z,12.90
2022-10-02T17:10:37.993Z,12.80
2022-10-02T17:13:31.510Z,12.80
2022-10-02T17:16:21.721Z,12.80
2022-10-02T17:18:58.494Z,12.80
2022-10-02T17:21:44.531Z,12.80
2022-10-02T17:24:40.107Z,12.70
2022-10-02T17:28:06.280Z,12.70
2022-10-02T17:31:06.610Z,12.70
2022-10-02T17:33:55.066Z,12.70
2022-10-02T17:36:36.787Z,12.70
2022-10-02T17:39:34.395Z,12.70
2022-10-02T17:42:20.499Z,12.70
2022-10-02T17:44:58.065Z,12.70
2022-10-02T17:48:08.895Z,12.70
2022-10-02T17:50:58.216Z,12.70
2022-10-02T17:54:17.359Z,12.70
2022-10-02T17:57:07.457Z,12.70
2022-10-02T18:00:00.189Z,12.70
2022-10-02T18:02:44.840Z,12.70
2022-10-02T18:05:37.134Z,12.60
2022-10-02T18:08:17.908Z,12.60
2022-10-02T18:11:25.201Z,12.60
2022-10-02T18:14:11.488Z,12.50
2022-10-02T18:17:01.064Z,12.40
2022-10-02T18:19:47.247Z,12.40
2022-10-02T18:22:55.575Z,12.30
2022-10-02T18:25:51.574Z,12.30
2022-10-02T18:28:53.962Z,12.20
2022-10-02T18:31:56.613Z,12.20
2022-10-02T18:34:46.761Z,12.20
2022-10-02T18:37:36.883Z,12.10
2022-10-02T18:40:26.182Z,12.00
2022-10-02T18:43:03.232Z,12.00
2022-10-02T18:46:19.035Z,12.00
2022-10-02T18:49:08.215Z,11.90
2022-10-02T18:51:46.384Z,11.90
2022-10-02T18:54:34.302Z,11.90
2022-10-02T18:57:10.001Z,11.90
2022-10-02T19:00:33.337Z,11.80
2022-10-02T19:03:20.423Z,11.70
2022-10-02T19:06:09.640Z,11.70
2022-10-02T19:09:22.272Z,11.60
2022-10-02T19:12:25.376Z,11.60
2022-10-02T19:15:27.561Z,11.60
2022-10-02T19:18:04.095Z,11.50
2022-10-02T19:20:42.941Z,11.40
2022-10-02T19:23:26.128Z,11.40
2022-10-02T19:25:56.214Z,11.30
2022-10-02T19:28:30.274Z,11.30
2022-10-02T19:31:11.131Z,11.20
2022-10-02T19:33:51.421Z,11.20
2022-10-02T19:36:24.433Z,11.20
2022-10-02T19:39:16.680Z,11.20
2022-10-02T19:41:53.326Z,11.20
2022-10-02T19:44:37.206Z,11.20
2022-10-02T19:47:35.224Z,11.20
2022-10-02T19:50:09.049Z,11.20
2022-10-02T19:52:48.307Z,11.30
2022-10-02T19:55:29.756Z,11.30
2022-10-02T19:58:14.570Z,11.30
2022-10-02T20:00:46.531Z,11.30
2022-10-02T20:03:22.896Z,11.30
2022-10-02T20:06:01.686Z,11.40
2022-10-02T20:09:10.743Z,11.40
2022-10-02T20:11:44.884Z,11.40
2022-10-02T20:14:35.430Z,11.40
2022-10-02T20:17:09.184Z,11.40
2022-10-02T20:19:56.525Z,11.40
2022-10-02T20:22:47.169Z,11.40
2022-10-02T20:25:26.566Z,11.40
2022-10-02T20:28:21.818Z,11.40
2022-10-02T20:31:06.808Z,11.30
2022-10-02T20:33:42.879Z,11.30
2022-10-02T20:36:23.564Z,11.30
2022-10-02T20:39:20.849Z,11.30
2022-10-02T20:42:10.404Z,11.20
2022-10-02T20:44:42.133Z,11.20
2022-10-02T20:48:05.045Z,11.20
2022-10-02T20:50:47.145Z,11.10
2022-10-02T20:53:45.270Z,11.10
2022-10-02T20:56:28.705Z,11.10
2022-10-02T20:59:49.854Z,11.10
2022-10-02T21:03:17.933Z,11.10
2022-10-02T21:05:54.132Z,11.00
2022-10-02T21:09:08.675Z,11.00
2022-10-02T21:12:17.008Z,11.00
2022-10-02T21:15:07.492Z,11.00
2022-10-02T21:18:12.208Z,11.00
2022-10-02T21:21:03.608Z,10.90
2022-10-02T21:23:52.183Z,10.90
2022-10-02T21:26:44.326Z,10.90
2022-10-02T21:29:30.852Z,10.90
2022-10-02T21:32:07.556Z,10.80
2022-10-02T21:35:00.056Z,10.80
2022-10-02T21:37:47.275Z,10.70
2022-10-02T21:40:53.190Z,10.60
2022-10-02T21:43:44.723Z,10.60
2022-10-02T21:47:10.301Z,10.60
2022-10-02T21:50:04.076Z,10.60
2022-10-02T21:52:33.950Z,10.50
2022-10-02T21:55:19.293Z,10.60
2022-10-02T21:58:19.898Z,10.50
2022-10-02T22:01:26.785Z,10.50
2022-10-02T22:04:23.294Z,10.50
2022-10-02T22:06:56.701Z,10.60
2022-10-02T22:09:44.945Z,10.60
2022-10-02T22:12:41.241Z,10.50
2022-10-02T22:15:19.602Z,10.60
2022-10-02T22:18:14.608Z,10.50
2022-10-02T22:21:11.159Z,10.60
2022-10-02T22:23:51.930Z,10.50
2022-10-02T22:26:31.109Z,10.60
2022-10-02T22:29:41.324Z,10.50
2022-10-02T22:32:47.243Z,10.50
2022-10-02T22:35:34.413Z,10.60
2022-10-02T22:38:16.855Z,10.60
2022-10-02T22:40:52.298Z,10.60
2022-10-02T22:43:34.267Z,10.60
2022-10-02T22:46:47.737Z,10.60
2022-10-02T22:49:34.894Z,10.60
2022-10-02T22:52:22.791Z,10.60
2022-10-02T22:55:07.910Z,10.60
2022-10-02T22:57:51.466Z,10.50
2022-10-02T23:00:33.852Z,10.50
2022-10-02T23:03:29.529Z,10.50
2022-10-02T23:06:12.666Z,10.50
2022-10-02T23:08:51.336Z,10.50
2022-10-02T23:11:41.194Z,10.50
2022-10-02T23:14:38.158Z,10.40
2022-10-02T23:17:27.662Z,10.40
2022-10-02T23:20:06.717Z,10.40
2022-10-02T23:22:43.241Z,10.40
2022-10-02T23:25:26.604Z,10.40
2022-10-02T23:28:11.541Z,10.40
2022-10-02T23:30:48.072Z,10.30
2022-10-02T23:33:25.995Z,10.30
2022-10-02T23:36:35.179Z,10.40
2022-10-02T23:39:22.097Z,10.40
2022-10-02T23:41:54.222Z,10.40
2022-10-02T23:44:43.289Z,10.40
2022-10-02T23:47:20.845Z,10.40
2022-10-02T23:49:53.224Z,10.40
2022-10-02T23:52:37.919Z,10.50
2022-10-02T23:55:23.355Z,10.40
2022-10-02T23:58:21.519Z,10.50
